Berlin, Germany

03:09 PM CET am 20. Januar 2017 (GMT +0100)
Aprikosensteig | | Change Station

Höhe 108 ft 52.45 °N, 13.47 °E | Updated 1 minute ago

Bedeckt
Bedeckt
36.3 °F
gefühlte 36 °F
N
0.6
Wind Wechselnd Wind aus Südwest
Gusts 2.5 mph

Heute
Max. -- | schwach -- °F
--% Regenrisiko
Gestern
Max. -- | schwach -- °F
Precip. -- inch
Druck 30.54 inch
Sichtweite 3.1 Meilen
Wolken Wolkig 600 ft
Windchill 36 °F
Taupunkt 34 °F
Feuchtigkeit 92%
Regen 0.00 inch
Schneehöhe Nicht verfügbar..
8:04 AM 4:30 PM
Letztes Viertel, 44% visible
METAR EDDB 201350Z 23005KT 5000 BR BKN006 01/M00 Q1034 R25/19//95 TEMPO 4000 BR BKN004
Druck 30.54 inch
Sichtweite 3.1 Meilen
Wolken Wolkig 600 ft
Windchill 36 °F
Taupunkt 34 °F
Feuchtigkeit 92%
Regen 0.00 inch
Schneehöhe Nicht verfügbar..
8:04 AM 4:30 PM
Letztes Viertel, 44% visible
METAR EDDB 201350Z 23005KT 5000 BR BKN006 01/M00 Q1034 R25/19//95 TEMPO 4000 BR BKN004

Get Your Daily Forecast Email!

Thanks for signing up!

Be on the lookout for a verification email in your inbox.

You'll start receiving the daily forecast at 8 AM.

×

10-Day Weather Forecast

×

Almanac

Astronomie

Jan. 20, 2017 Aufgang Untergang
Genaue Zeit
Bürgerliche Dämmerung
Nautische Dämmerung
Astronomische Dämmerung
Mond
Länge des sichtbaren Lichts
Tageslänge
Tomorrow will be .
, % of the Moon is Illuminated

Heutige Rekorde

Country Highs Country Lows

Community

WunderPhotos

Upload Photos

1,962,540 Fotos hochgeladen!

WunderBlog® & News

Nearby

Luftqualität

  Luftqualität LQ Index Schadstoff
Not available.

Schneehöhe

Station Depth Höhe

Erdbebenaktivität

Stadt Distance Mag. Time & Date
Minimum magnitude displayed is 2.5.

küstennahe Wassertemperaturen

Ort Temperatur

Stations

Wetterstationen in der Umgebung

Stationsstandort Temp. Windchill Taupunkt Feuchtigkeit Wind Precip. Höhe Aktualisiert Art